sensor_id;sensor_type;location;lat;lon;timestamp;temperature;humidity
74661;SHT31;63191;39.566;2.654;2022-12-05T00:01:22;12.66;85.60
74661;SHT31;63191;39.566;2.654;2022-12-05T00:03:49;12.66;85.69
74661;SHT31;63191;39.566;2.654;2022-12-05T00:06:16;12.69;85.79
74661;SHT31;63191;39.566;2.654;2022-12-05T00:08:43;12.69;85.85
74661;SHT31;63191;39.566;2.654;2022-12-05T00:11:14;12.71;85.90
74661;SHT31;63191;39.566;2.654;2022-12-05T00:13:42;12.73;85.81
74661;SHT31;63191;39.566;2.654;2022-12-05T00:16:11;12.76;85.78
74661;SHT31;63191;39.566;2.654;2022-12-05T00:18:40;12.76;85.69
74661;SHT31;63191;39.566;2.654;2022-12-05T00:21:08;12.76;85.62
74661;SHT31;63191;39.566;2.654;2022-12-05T00:23:39;12.74;85.60
74661;SHT31;63191;39.566;2.654;2022-12-05T00:26:05;12.74;85.67
74661;SHT31;63191;39.566;2.654;2022-12-05T00:28:31;12.72;85.70
74661;SHT31;63191;39.566;2.654;2022-12-05T00:31:02;12.71;85.63
74661;SHT31;63191;39.566;2.654;2022-12-05T00:33:34;12.70;85.60
74661;SHT31;63191;39.566;2.654;2022-12-05T00:36:07;12.71;85.56
74661;SHT31;63191;39.566;2.654;2022-12-05T00:38:37;12.69;85.58
74661;SHT31;63191;39.566;2.654;2022-12-05T00:41:07;12.67;85.60
74661;SHT31;63191;39.566;2.654;2022-12-05T00:43:36;12.65;85.60
74661;SHT31;63191;39.566;2.654;2022-12-05T00:46:03;12.63;85.60
74661;SHT31;63191;39.566;2.654;2022-12-05T00:48:35;12.58;85.63
74661;SHT31;63191;39.566;2.654;2022-12-05T00:51:02;12.57;85.68
74661;SHT31;63191;39.566;2.654;2022-12-05T00:53:30;12.56;85.70
74661;SHT31;63191;39.566;2.654;2022-12-05T00:56:00;12.54;85.70
74661;SHT31;63191;39.566;2.654;2022-12-05T00:58:34;12.52;85.70
74661;SHT31;63191;39.566;2.654;2022-12-05T01:01:07;12.50;85.76
74661;SHT31;63191;39.566;2.654;2022-12-05T01:03:49;12.49;85.86
74661;SHT31;63191;39.566;2.654;2022-12-05T01:06:19;12.46;85.92
74661;SHT31;63191;39.566;2.654;2022-12-05T01:08:46;12.45;85.91
74661;SHT31;63191;39.566;2.654;2022-12-05T01:11:13;12.44;85.90
74661;SHT31;63191;39.566;2.654;2022-12-05T01:13:42;12.44;85.90
74661;SHT31;63191;39.566;2.654;2022-12-05T01:16:13;12.43;85.90
74661;SHT31;63191;39.566;2.654;2022-12-05T01:18:44;12.41;85.90
74661;SHT31;63191;39.566;2.654;2022-12-05T01:21:10;12.39;85.98
74661;SHT31;63191;39.566;2.654;2022-12-05T01:23:36;12.36;86.09
74661;SHT31;63191;39.566;2.654;2022-12-05T01:26:04;12.35;86.20
74661;SHT31;63191;39.566;2.654;2022-12-05T01:28:32;12.33;86.32
74661;SHT31;63191;39.566;2.654;2022-12-05T01:31:02;12.33;86.42
74661;SHT31;63191;39.566;2.654;2022-12-05T01:33:35;12.34;86.49
74661;SHT31;63191;39.566;2.654;2022-12-05T01:36:01;12.35;86.49
74661;SHT31;63191;39.566;2.654;2022-12-05T01:38:28;12.36;86.54
74661;SHT31;63191;39.566;2.654;2022-12-05T01:41:01;12.36;86.51
74661;SHT31;63191;39.566;2.654;2022-12-05T01:43:29;12.34;86.60
74661;SHT31;63191;39.566;2.654;2022-12-05T01:45:55;12.33;86.62
74661;SHT31;63191;39.566;2.654;2022-12-05T01:48:23;12.30;86.63
74661;SHT31;63191;39.566;2.654;2022-12-05T01:50:56;12.27;86.68
74661;SHT31;63191;39.566;2.654;2022-12-05T01:53:23;12.26;86.70
74661;SHT31;63191;39.566;2.654;2022-12-05T01:55:50;12.26;86.74
74661;SHT31;63191;39.566;2.654;2022-12-05T01:58:18;12.30;86.86
74661;SHT31;63191;39.566;2.654;2022-12-05T02:00:44;12.36;86.95
74661;SHT31;63191;39.566;2.654;2022-12-05T02:03:12;12.42;86.98
74661;SHT31;63191;39.566;2.654;2022-12-05T02:05:42;12.48;86.99
74661;SHT31;63191;39.566;2.654;2022-12-05T02:08:13;12.52;87.00
74661;SHT31;63191;39.566;2.654;2022-12-05T02:10:40;12.57;87.01
74661;SHT31;63191;39.566;2.654;2022-12-05T02:13:22;12.61;86.95
74661;SHT31;63191;39.566;2.654;2022-12-05T02:16:43;12.67;86.93
74661;SHT31;63191;39.566;2.654;2022-12-05T02:25:22;12.83;86.85
74661;SHT31;63191;39.566;2.654;2022-12-05T02:34:04;12.80;86.48
74661;SHT31;63191;39.566;2.654;2022-12-05T02:37:07;12.78;86.35
74661;SHT31;63191;39.566;2.654;2022-12-05T02:42:44;12.71;86.20
74661;SHT31;63191;39.566;2.654;2022-12-05T02:45:18;12.67;86.18
74661;SHT31;63191;39.566;2.654;2022-12-05T02:47:47;12.61;86.16
74661;SHT31;63191;39.566;2.654;2022-12-05T02:50:18;12.56;86.17
74661;SHT31;63191;39.566;2.654;2022-12-05T02:52:49;12.51;86.20
74661;SHT31;63191;39.566;2.654;2022-12-05T02:55:17;12.48;86.22
74661;SHT31;63191;39.566;2.654;2022-12-05T02:57:47;12.46;86.30
74661;SHT31;63191;39.566;2.654;2022-12-05T03:00:17;12.44;86.23
74661;SHT31;63191;39.566;2.654;2022-12-05T03:02:43;12.42;86.20
74661;SHT31;63191;39.566;2.654;2022-12-05T03:07:42;12.33;86.22
74661;SHT31;63191;39.566;2.654;2022-12-05T03:10:11;12.28;86.26
74661;SHT31;63191;39.566;2.654;2022-12-05T03:12:43;12.24;86.30
74661;SHT31;63191;39.566;2.654;2022-12-05T03:15:16;12.19;86.30
74661;SHT31;63191;39.566;2.654;2022-12-05T03:17:52;12.18;86.35
74661;SHT31;63191;39.566;2.654;2022-12-05T03:20:26;12.16;86.39
74661;SHT31;63191;39.566;2.654;2022-12-05T03:22:59;12.15;86.40
74661;SHT31;63191;39.566;2.654;2022-12-05T03:25:34;12.13;86.49
74661;SHT31;63191;39.566;2.654;2022-12-05T03:28:13;12.11;86.52
74661;SHT31;63191;39.566;2.654;2022-12-05T03:30:50;12.08;86.60
74661;SHT31;63191;39.566;2.654;2022-12-05T03:34:00;12.04;86.65
74661;SHT31;63191;39.566;2.654;2022-12-05T03:38:57;12.03;86.77
74661;SHT31;63191;39.566;2.654;2022-12-05T03:42:30;12.06;86.90
74661;SHT31;63191;39.566;2.654;2022-12-05T03:44:53;12.09;87.07
74661;SHT31;63191;39.566;2.654;2022-12-05T03:47:27;12.11;87.17
74661;SHT31;63191;39.566;2.654;2022-12-05T03:50:21;12.12;87.23
74661;SHT31;63191;39.566;2.654;2022-12-05T03:52:53;12.12;87.22
74661;SHT31;63191;39.566;2.654;2022-12-05T03:55:35;12.11;87.25
74661;SHT31;63191;39.566;2.654;2022-12-05T03:58:07;12.11;87.20
74661;SHT31;63191;39.566;2.654;2022-12-05T04:00:46;12.12;87.20
74661;SHT31;63191;39.566;2.654;2022-12-05T04:03:19;12.15;87.22
74661;SHT31;63191;39.566;2.654;2022-12-05T04:05:52;12.15;87.28
74661;SHT31;63191;39.566;2.654;2022-12-05T04:08:23;12.15;87.30
74661;SHT31;63191;39.566;2.654;2022-12-05T04:10:57;12.15;87.29
74661;SHT31;63191;39.566;2.654;2022-12-05T04:13:47;12.14;87.31
74661;SHT31;63191;39.566;2.654;2022-12-05T04:16:52;12.16;87.40
74661;SHT31;63191;39.566;2.654;2022-12-05T04:22:30;12.23;87.40
74661;SHT31;63191;39.566;2.654;2022-12-05T04:24:57;12.26;87.40
74661;SHT31;63191;39.566;2.654;2022-12-05T04:31:08;12.29;87.50
74661;SHT31;63191;39.566;2.654;2022-12-05T04:33:54;12.31;87.60
74661;SHT31;63191;39.566;2.654;2022-12-05T04:39:33;12.40;87.57
74661;SHT31;63191;39.566;2.654;2022-12-05T04:42:13;12.44;87.47
74661;SHT31;63191;39.566;2.654;2022-12-05T04:44:48;12.47;87.40
74661;SHT31;63191;39.566;2.654;2022-12-05T04:47:18;12.48;87.32
74661;SHT31;63191;39.566;2.654;2022-12-05T04:49:51;12.48;87.29
74661;SHT31;63191;39.566;2.654;2022-12-05T04:52:18;12.48;87.28
74661;SHT31;63191;39.566;2.654;2022-12-05T04:54:47;12.50;87.23
74661;SHT31;63191;39.566;2.654;2022-12-05T04:57:23;12.52;87.13
74661;SHT31;63191;39.566;2.654;2022-12-05T04:59:54;12.54;87.02
74661;SHT31;63191;39.566;2.654;2022-12-05T05:02:23;12.54;86.92
74661;SHT31;63191;39.566;2.654;2022-12-05T05:04:56;12.54;86.91
74661;SHT31;63191;39.566;2.654;2022-12-05T05:07:25;12.53;86.90
74661;SHT31;63191;39.566;2.654;2022-12-05T05:09:51;12.50;86.92
74661;SHT31;63191;39.566;2.654;2022-12-05T05:12:17;12.48;86.92
74661;SHT31;63191;39.566;2.654;2022-12-05T05:14:43;12.48;86.87
74661;SHT31;63191;39.566;2.654;2022-12-05T05:17:09;12.49;86.84
74661;SHT31;63191;39.566;2.654;2022-12-05T05:19:34;12.49;86.80
74661;SHT31;63191;39.566;2.654;2022-12-05T05:22:00;12.51;86.80
74661;SHT31;63191;39.566;2.654;2022-12-05T05:24:26;12.51;86.80
74661;SHT31;63191;39.566;2.654;2022-12-05T05:26:52;12.50;86.80
74661;SHT31;63191;39.566;2.654;2022-12-05T05:29:17;12.49;86.80
74661;SHT31;63191;39.566;2.654;2022-12-05T05:31:44;12.48;86.79
74661;SHT31;63191;39.566;2.654;2022-12-05T05:34:10;12.47;86.74
74661;SHT31;63191;39.566;2.654;2022-12-05T05:36:36;12.46;86.65
74661;SHT31;63191;39.566;2.654;2022-12-05T05:39:04;12.46;86.58
74661;SHT31;63191;39.566;2.654;2022-12-05T05:41:32;12.44;86.58
74661;SHT31;63191;39.566;2.654;2022-12-05T05:44:00;12.42;86.50
74661;SHT31;63191;39.566;2.654;2022-12-05T05:46:28;12.39;86.50
74661;SHT31;63191;39.566;2.654;2022-12-05T05:48:57;12.35;86.48
74661;SHT31;63191;39.566;2.654;2022-12-05T05:51:24;12.30;86.49
74661;SHT31;63191;39.566;2.654;2022-12-05T05:53:52;12.28;86.48
74661;SHT31;63191;39.566;2.654;2022-12-05T05:56:18;12.26;86.40
74661;SHT31;63191;39.566;2.654;2022-12-05T05:58:45;12.24;86.39
74661;SHT31;63191;39.566;2.654;2022-12-05T06:01:16;12.23;86.39
74661;SHT31;63191;39.566;2.654;2022-12-05T06:03:46;12.21;86.41
74661;SHT31;63191;39.566;2.654;2022-12-05T06:06:14;12.18;86.47
74661;SHT31;63191;39.566;2.654;2022-12-05T06:08:41;12.16;86.58
74661;SHT31;63191;39.566;2.654;2022-12-05T06:11:09;12.13;86.67
74661;SHT31;63191;39.566;2.654;2022-12-05T06:13:38;12.11;86.77
74661;SHT31;63191;39.566;2.654;2022-12-05T06:16:04;12.12;86.89
74661;SHT31;63191;39.566;2.654;2022-12-05T06:18:32;12.13;86.95
74661;SHT31;63191;39.566;2.654;2022-12-05T06:20:59;12.16;87.00
74661;SHT31;63191;39.566;2.654;2022-12-05T06:23:25;12.17;87.00
74661;SHT31;63191;39.566;2.654;2022-12-05T06:25:52;12.17;86.99
74661;SHT31;63191;39.566;2.654;2022-12-05T06:28:22;12.16;87.00
74661;SHT31;63191;39.566;2.654;2022-12-05T06:30:49;12.16;87.01
74661;SHT31;63191;39.566;2.654;2022-12-05T06:33:16;12.14;87.02
74661;SHT31;63191;39.566;2.654;2022-12-05T06:35:42;12.14;87.00
74661;SHT31;63191;39.566;2.654;2022-12-05T06:38:08;12.13;87.00
74661;SHT31;63191;39.566;2.654;2022-12-05T06:40:38;12.14;87.00
74661;SHT31;63191;39.566;2.654;2022-12-05T06:43:09;12.14;87.00
74661;SHT31;63191;39.566;2.654;2022-12-05T06:45:38;12.13;87.00
74661;SHT31;63191;39.566;2.654;2022-12-05T06:48:04;12.12;87.08
74661;SHT31;63191;39.566;2.654;2022-12-05T06:50:31;12.11;87.09
74661;SHT31;63191;39.566;2.654;2022-12-05T06:52:57;12.07;87.08
74661;SHT31;63191;39.566;2.654;2022-12-05T06:55:22;12.07;87.05
74661;SHT31;63191;39.566;2.654;2022-12-05T06:57:48;12.07;87.03
74661;SHT31;63191;39.566;2.654;2022-12-05T07:00:14;12.08;87.02
74661;SHT31;63191;39.566;2.654;2022-12-05T07:02:59;12.10;87.07
74661;SHT31;63191;39.566;2.654;2022-12-05T07:05:24;12.12;87.14
74661;SHT31;63191;39.566;2.654;2022-12-05T07:07:50;12.15;87.20
74661;SHT31;63191;39.566;2.654;2022-12-05T07:10:16;12.18;87.23
74661;SHT31;63191;39.566;2.654;2022-12-05T07:12:41;12.22;87.22
74661;SHT31;63191;39.566;2.654;2022-12-05T07:15:07;12.24;87.20
74661;SHT31;63191;39.566;2.654;2022-12-05T07:17:36;12.28;87.13
74661;SHT31;63191;39.566;2.654;2022-12-05T07:20:06;12.33;87.07
74661;SHT31;63191;39.566;2.654;2022-12-05T07:22:34;12.39;86.96
74661;SHT31;63191;39.566;2.654;2022-12-05T07:25:01;12.43;86.87
74661;SHT31;63191;39.566;2.654;2022-12-05T07:27:27;12.48;86.79
74661;SHT31;63191;39.566;2.654;2022-12-05T07:29:53;12.54;86.72
74661;SHT31;63191;39.566;2.654;2022-12-05T07:32:19;12.59;86.65
74661;SHT31;63191;39.566;2.654;2022-12-05T07:34:45;12.73;86.51
74661;SHT31;63191;39.566;2.654;2022-12-05T07:37:10;12.98;86.29
74661;SHT31;63191;39.566;2.654;2022-12-05T07:39:38;13.39;85.88
74661;SHT31;63191;39.566;2.654;2022-12-05T07:42:03;13.88;85.41
74661;SHT31;63191;39.566;2.654;2022-12-05T07:44:29;13.97;85.22
74661;SHT31;63191;39.566;2.654;2022-12-05T07:46:56;14.14;84.66
74661;SHT31;63191;39.566;2.654;2022-12-05T07:49:21;14.73;83.88
74661;SHT31;63191;39.566;2.654;2022-12-05T07:51:47;15.31;83.29
74661;SHT31;63191;39.566;2.654;2022-12-05T07:54:13;15.98;82.42
74661;SHT31;63191;39.566;2.654;2022-12-05T07:56:38;16.64;81.27
74661;SHT31;63191;39.566;2.654;2022-12-05T07:59:04;17.35;79.95
74661;SHT31;63191;39.566;2.654;2022-12-05T08:01:30;18.12;78.11
74661;SHT31;63191;39.566;2.654;2022-12-05T08:03:56;18.89;76.03
74661;SHT31;63191;39.566;2.654;2022-12-05T08:06:24;19.60;74.03
74661;SHT31;63191;39.566;2.654;2022-12-05T08:08:53;20.24;71.36
74661;SHT31;63191;39.566;2.654;2022-12-05T08:11:20;20.84;69.31
74661;SHT31;63191;39.566;2.654;2022-12-05T08:13:52;21.36;67.34
74661;SHT31;63191;39.566;2.654;2022-12-05T08:16:19;21.71;64.81
74661;SHT31;63191;39.566;2.654;2022-12-05T08:18:48;21.76;63.26
74661;SHT31;63191;39.566;2.654;2022-12-05T08:21:22;21.89;62.74
74661;SHT31;63191;39.566;2.654;2022-12-05T08:23:49;22.40;62.21
74661;SHT31;63191;39.566;2.654;2022-12-05T08:26:17;23.07;61.03
74661;SHT31;63191;39.566;2.654;2022-12-05T08:28:58;23.71;59.45
74661;SHT31;63191;39.566;2.654;2022-12-05T08:31:35;24.37;57.79
74661;SHT31;63191;39.566;2.654;2022-12-05T08:34:09;24.98;56.33
74661;SHT31;63191;39.566;2.654;2022-12-05T08:36:37;25.51;54.64
74661;SHT31;63191;39.566;2.654;2022-12-05T08:39:04;25.94;53.23
74661;SHT31;63191;39.566;2.654;2022-12-05T08:41:31;26.40;52.27
74661;SHT31;63191;39.566;2.654;2022-12-05T08:43:59;26.96;51.30
74661;SHT31;63191;39.566;2.654;2022-12-05T08:46:27;27.54;50.04
74661;SHT31;63191;39.566;2.654;2022-12-05T08:48:54;28.13;49.27
74661;SHT31;63191;39.566;2.654;2022-12-05T08:51:20;28.69;47.67
74661;SHT31;63191;39.566;2.654;2022-12-05T08:53:45;29.10;46.48
74661;SHT31;63191;39.566;2.654;2022-12-05T08:56:11;29.47;45.49
74661;SHT31;63191;39.566;2.654;2022-12-05T08:58:37;29.68;44.41
74661;SHT31;63191;39.566;2.654;2022-12-05T09:03:36;30.23;42.97
74661;SHT31;63191;39.566;2.654;2022-12-05T09:06:06;30.52;42.11
74661;SHT31;63191;39.566;2.654;2022-12-05T09:08:35;30.85;41.72
74661;SHT31;63191;39.566;2.654;2022-12-05T09:11:05;31.30;41.06
74661;SHT31;63191;39.566;2.654;2022-12-05T09:13:33;31.77;40.57
74661;SHT31;63191;39.566;2.654;2022-12-05T09:16:07;32.14;39.63
74661;SHT31;63191;39.566;2.654;2022-12-05T09:18:46;32.35;39.18
74661;SHT31;63191;39.566;2.654;2022-12-05T09:21:17;32.41;38.69
74661;SHT31;63191;39.566;2.654;2022-12-05T09:23:47;32.37;38.32
74661;SHT31;63191;39.566;2.654;2022-12-05T09:26:14;32.32;38.24
74661;SHT31;63191;39.566;2.654;2022-12-05T09:28:43;32.49;38.15
74661;SHT31;63191;39.566;2.654;2022-12-05T09:31:10;32.89;37.97
74661;SHT31;63191;39.566;2.654;2022-12-05T09:33:45;33.34;37.60
74661;SHT31;63191;39.566;2.654;2022-12-05T09:36:22;33.69;37.13
74661;SHT31;63191;39.566;2.654;2022-12-05T09:38:51;33.92;36.51
74661;SHT31;63191;39.566;2.654;2022-12-05T09:44:24;34.53;35.91
74661;SHT31;63191;39.566;2.654;2022-12-05T09:52:36;35.33;34.88
74661;SHT31;63191;39.566;2.654;2022-12-05T09:55:14;35.76;34.32
74661;SHT31;63191;39.566;2.654;2022-12-05T09:57:53;36.19;34.03
74661;SHT31;63191;39.566;2.654;2022-12-05T10:00:24;36.67;33.65
74661;SHT31;63191;39.566;2.654;2022-12-05T10:06:37;37.62;32.30
74661;SHT31;63191;39.566;2.654;2022-12-05T10:12:40;38.25;30.49
74661;SHT31;63191;39.566;2.654;2022-12-05T10:27:09;37.94;29.89
74661;SHT31;63191;39.566;2.654;2022-12-05T10:29:49;37.85;29.91
74661;SHT31;63191;39.566;2.654;2022-12-05T10:32:45;37.77;29.89
74661;SHT31;63191;39.566;2.654;2022-12-05T10:35:22;37.88;29.86
74661;SHT31;63191;39.566;2.654;2022-12-05T10:37:57;37.93;28.96
74661;SHT31;63191;39.566;2.654;2022-12-05T10:40:31;37.76;28.79
74661;SHT31;63191;39.566;2.654;2022-12-05T10:43:04;37.55;29.02
74661;SHT31;63191;39.566;2.654;2022-12-05T10:45:33;37.28;28.52
74661;SHT31;63191;39.566;2.654;2022-12-05T10:48:13;36.98;28.99
74661;SHT31;63191;39.566;2.654;2022-12-05T10:50:41;36.75;28.80
74661;SHT31;63191;39.566;2.654;2022-12-05T10:53:35;36.46;29.14
74661;SHT31;63191;39.566;2.654;2022-12-05T10:59:11;35.85;29.09
74661;SHT31;63191;39.566;2.654;2022-12-05T11:01:47;35.31;29.70
74661;SHT31;63191;39.566;2.654;2022-12-05T11:04:25;35.05;30.34
74661;SHT31;63191;39.566;2.654;2022-12-05T11:09:27;35.08;30.30
74661;SHT31;63191;39.566;2.654;2022-12-05T11:11:59;34.98;30.34
74661;SHT31;63191;39.566;2.654;2022-12-05T11:15:44;34.91;30.56
74661;SHT31;63191;39.566;2.654;2022-12-05T11:17:43;34.50;30.59
74661;SHT31;63191;39.566;2.654;2022-12-05T11:22:42;33.82;31.89
74661;SHT31;63191;39.566;2.654;2022-12-05T11:27:54;33.76;32.22
74661;SHT31;63191;39.566;2.654;2022-12-05T11:30:23;33.60;32.06
74661;SHT31;63191;39.566;2.654;2022-12-05T11:35:49;33.74;32.52
74661;SHT31;63191;39.566;2.654;2022-12-05T11:38:18;33.92;32.23
74661;SHT31;63191;39.566;2.654;2022-12-05T11:50:10;34.35;32.17
74661;SHT31;63191;39.566;2.654;2022-12-05T12:07:47;33.69;31.22
74661;SHT31;63191;39.566;2.654;2022-12-05T12:10:45;32.27;33.05
74661;SHT31;63191;39.566;2.654;2022-12-05T12:16:17;30.27;35.86
74661;SHT31;63191;39.566;2.654;2022-12-05T12:19:48;29.74;37.06
74661;SHT31;63191;39.566;2.654;2022-12-05T12:28:25;29.63;38.14
74661;SHT31;63191;39.566;2.654;2022-12-05T12:37:43;30.67;36.90
74661;SHT31;63191;39.566;2.654;2022-12-05T12:51:28;32.01;35.62
74661;SHT31;63191;39.566;2.654;2022-12-05T13:08:00;29.58;38.84
74661;SHT31;63191;39.566;2.654;2022-12-05T13:10:50;30.24;38.57
74661;SHT31;63191;39.566;2.654;2022-12-05T13:13:20;30.64;38.09
74661;SHT31;63191;39.566;2.654;2022-12-05T13:15:53;30.75;37.70
74661;SHT31;63191;39.566;2.654;2022-12-05T13:18:23;30.66;37.62
74661;SHT31;63191;39.566;2.654;2022-12-05T13:20:59;30.69;37.41
74661;SHT31;63191;39.566;2.654;2022-12-05T13:23:31;30.23;37.95
74661;SHT31;63191;39.566;2.654;2022-12-05T13:26:06;30.48;37.99
74661;SHT31;63191;39.566;2.654;2022-12-05T13:28:36;30.80;37.79
74661;SHT31;63191;39.566;2.654;2022-12-05T13:31:14;30.78;37.59
74661;SHT31;63191;39.566;2.654;2022-12-05T13:33:45;30.01;38.20
74661;SHT31;63191;39.566;2.654;2022-12-05T13:36:20;28.93;39.33
74661;SHT31;63191;39.566;2.654;2022-12-05T13:39:06;27.77;41.01
74661;SHT31;63191;39.566;2.654;2022-12-05T13:42:04;27.32;42.19
74661;SHT31;63191;39.566;2.654;2022-12-05T13:53:22;27.00;43.99
74661;SHT31;63191;39.566;2.654;2022-12-05T14:01:40;28.55;42.07
74661;SHT31;63191;39.566;2.654;2022-12-05T14:04:20;29.03;41.43
74661;SHT31;63191;39.566;2.654;2022-12-05T14:07:57;29.11;40.62
74661;SHT31;63191;39.566;2.654;2022-12-05T14:10:15;29.12;40.42
74661;SHT31;63191;39.566;2.654;2022-12-05T14:15:44;28.67;40.66
74661;SHT31;63191;39.566;2.654;2022-12-05T14:24:06;26.40;44.08
74661;SHT31;63191;39.566;2.654;2022-12-05T14:27:18;25.50;45.88
74661;SHT31;63191;39.566;2.654;2022-12-05T14:32:34;24.20;49.13
74661;SHT31;63191;39.566;2.654;2022-12-05T14:35:15;23.67;50.31
74661;SHT31;63191;39.566;2.654;2022-12-05T14:38:01;23.22;51.59
74661;SHT31;63191;39.566;2.654;2022-12-05T14:40:34;22.83;52.60
74661;SHT31;63191;39.566;2.654;2022-12-05T14:43:07;22.53;53.35
74661;SHT31;63191;39.566;2.654;2022-12-05T14:54:06;22.03;55.98
74661;SHT31;63191;39.566;2.654;2022-12-05T14:56:50;21.92;56.33
74661;SHT31;63191;39.566;2.654;2022-12-05T14:59:24;21.76;56.86
74661;SHT31;63191;39.566;2.654;2022-12-05T15:01:56;21.61;57.35
74661;SHT31;63191;39.566;2.654;2022-12-05T15:04:37;21.48;57.62
74661;SHT31;63191;39.566;2.654;2022-12-05T15:07:18;21.32;58.21
74661;SHT31;63191;39.566;2.654;2022-12-05T15:09:56;21.11;58.69
74661;SHT31;63191;39.566;2.654;2022-12-05T15:18:26;20.57;60.58
74661;SHT31;63191;39.566;2.654;2022-12-05T15:20:58;20.41;61.45
74661;SHT31;63191;39.566;2.654;2022-12-05T15:23:45;20.29;61.85
74661;SHT31;63191;39.566;2.654;2022-12-05T15:31:48;19.97;63.23
74661;SHT31;63191;39.566;2.654;2022-12-05T15:34:20;19.87;63.50
74661;SHT31;63191;39.566;2.654;2022-12-05T15:37:12;19.78;63.79
74661;SHT31;63191;39.566;2.654;2022-12-05T15:42:44;19.52;64.71
74661;SHT31;63191;39.566;2.654;2022-12-05T15:47:44;19.29;65.54
74661;SHT31;63191;39.566;2.654;2022-12-05T15:50:12;19.18;65.80
74661;SHT31;63191;39.566;2.654;2022-12-05T15:55:49;18.94;66.79
74661;SHT31;63191;39.566;2.654;2022-12-05T15:58:23;18.82;67.18
74661;SHT31;63191;39.566;2.654;2022-12-05T16:01:00;18.70;67.43
74661;SHT31;63191;39.566;2.654;2022-12-05T16:03:48;18.56;67.98
74661;SHT31;63191;39.566;2.654;2022-12-05T16:06:36;18.46;68.22
74661;SHT31;63191;39.566;2.654;2022-12-05T16:09:13;18.35;68.89
74661;SHT31;63191;39.566;2.654;2022-12-05T16:11:56;18.27;69.31
74661;SHT31;63191;39.566;2.654;2022-12-05T16:14:36;18.15;69.59
74661;SHT31;63191;39.566;2.654;2022-12-05T16:17:03;18.04;70.21
74661;SHT31;63191;39.566;2.654;2022-12-05T16:19:33;17.94;70.63
74661;SHT31;63191;39.566;2.654;2022-12-05T16:22:07;17.83;70.84
74661;SHT31;63191;39.566;2.654;2022-12-05T16:24:40;17.73;71.34
74661;SHT31;63191;39.566;2.654;2022-12-05T16:32:43;17.51;72.16
74661;SHT31;63191;39.566;2.654;2022-12-05T16:35:30;17.45;72.52
74661;SHT31;63191;39.566;2.654;2022-12-05T16:41:05;17.29;73.03
74661;SHT31;63191;39.566;2.654;2022-12-05T16:48:39;17.14;73.49
74661;SHT31;63191;39.566;2.654;2022-12-05T16:51:15;17.07;73.64
74661;SHT31;63191;39.566;2.654;2022-12-05T16:53:49;17.02;73.89
74661;SHT31;63191;39.566;2.654;2022-12-05T16:56:21;16.98;73.97
74661;SHT31;63191;39.566;2.654;2022-12-05T16:58:50;16.95;74.14
74661;SHT31;63191;39.566;2.654;2022-12-05T17:01:17;16.92;74.26
74661;SHT31;63191;39.566;2.654;2022-12-05T17:03:46;16.88;74.35
74661;SHT31;63191;39.566;2.654;2022-12-05T17:06:12;16.84;74.40
74661;SHT31;63191;39.566;2.654;2022-12-05T17:08:39;16.79;74.52
74661;SHT31;63191;39.566;2.654;2022-12-05T17:11:09;16.75;74.70
74661;SHT31;63191;39.566;2.654;2022-12-05T17:13:42;16.70;74.87
74661;SHT31;63191;39.566;2.654;2022-12-05T17:16:12;16.67;74.90
74661;SHT31;63191;39.566;2.654;2022-12-05T17:18:42;16.64;74.97
74661;SHT31;63191;39.566;2.654;2022-12-05T17:21:10;16.64;75.08
74661;SHT31;63191;39.566;2.654;2022-12-05T17:23:41;16.63;75.15
74661;SHT31;63191;39.566;2.654;2022-12-05T17:26:07;16.60;75.21
74661;SHT31;63191;39.566;2.654;2022-12-05T17:28:38;16.57;75.32
74661;SHT31;63191;39.566;2.654;2022-12-05T17:31:04;16.53;75.40
74661;SHT31;63191;39.566;2.654;2022-12-05T17:33:31;16.48;75.50
74661;SHT31;63191;39.566;2.654;2022-12-05T17:35:58;16.45;75.62
74661;SHT31;63191;39.566;2.654;2022-12-05T17:38:24;16.43;75.66
74661;SHT31;63191;39.566;2.654;2022-12-05T17:40:50;16.42;75.64
74661;SHT31;63191;39.566;2.654;2022-12-05T17:43:16;16.41;75.70
74661;SHT31;63191;39.566;2.654;2022-12-05T17:45:42;16.38;75.68
74661;SHT31;63191;39.566;2.654;2022-12-05T17:48:11;16.35;75.77
74661;SHT31;63191;39.566;2.654;2022-12-05T17:50:39;16.32;75.89
74661;SHT31;63191;39.566;2.654;2022-12-05T17:53:07;16.28;75.90
74661;SHT31;63191;39.566;2.654;2022-12-05T17:55:38;16.22;75.91
74661;SHT31;63191;39.566;2.654;2022-12-05T17:58:04;16.17;76.09
74661;SHT31;63191;39.566;2.654;2022-12-05T18:00:30;16.15;76.13
74661;SHT31;63191;39.566;2.654;2022-12-05T18:02:55;16.12;76.26
74661;SHT31;63191;39.566;2.654;2022-12-05T18:05:21;16.10;76.21
74661;SHT31;63191;39.566;2.654;2022-12-05T18:07:47;16.08;76.28
74661;SHT31;63191;39.566;2.654;2022-12-05T18:12:46;16.01;76.48
74661;SHT31;63191;39.566;2.654;2022-12-05T18:15:14;15.96;76.52
74661;SHT31;63191;39.566;2.654;2022-12-05T18:17:41;15.91;76.66
74661;SHT31;63191;39.566;2.654;2022-12-05T18:20:08;15.86;76.88
74661;SHT31;63191;39.566;2.654;2022-12-05T18:22:38;15.83;77.13
74661;SHT31;63191;39.566;2.654;2022-12-05T18:25:04;15.81;77.26
74661;SHT31;63191;39.566;2.654;2022-12-05T18:27:31;15.81;77.41
74661;SHT31;63191;39.566;2.654;2022-12-05T18:29:59;15.79;77.51
74661;SHT31;63191;39.566;2.654;2022-12-05T18:32:24;15.76;77.61
74661;SHT31;63191;39.566;2.654;2022-12-05T18:34:50;15.72;77.70
74661;SHT31;63191;39.566;2.654;2022-12-05T18:37:16;15.68;77.79
74661;SHT31;63191;39.566;2.654;2022-12-05T18:39:42;15.62;77.87
74661;SHT31;63191;39.566;2.654;2022-12-05T18:42:08;15.57;78.05
74661;SHT31;63191;39.566;2.654;2022-12-05T18:44:34;15.55;78.20
74661;SHT31;63191;39.566;2.654;2022-12-05T18:47:01;15.52;78.28
74661;SHT31;63191;39.566;2.654;2022-12-05T18:49:28;15.49;78.37
74661;SHT31;63191;39.566;2.654;2022-12-05T18:51:53;15.47;78.49
74661;SHT31;63191;39.566;2.654;2022-12-05T18:54:19;15.42;78.69
74661;SHT31;63191;39.566;2.654;2022-12-05T18:56:45;15.39;78.91
74661;SHT31;63191;39.566;2.654;2022-12-05T18:59:14;15.36;79.07
74661;SHT31;63191;39.566;2.654;2022-12-05T19:01:43;15.32;79.21
74661;SHT31;63191;39.566;2.654;2022-12-05T19:04:11;15.31;79.36
74661;SHT31;63191;39.566;2.654;2022-12-05T19:06:40;15.30;79.45
74661;SHT31;63191;39.566;2.654;2022-12-05T19:09:12;15.30;79.56
74661;SHT31;63191;39.566;2.654;2022-12-05T19:11:44;15.28;79.60
74661;SHT31;63191;39.566;2.654;2022-12-05T19:14:14;15.25;79.63
74661;SHT31;63191;39.566;2.654;2022-12-05T19:16:43;15.22;79.69
74661;SHT31;63191;39.566;2.654;2022-12-05T19:19:11;15.17;79.77
74661;SHT31;63191;39.566;2.654;2022-12-05T19:21:38;15.12;79.97
74661;SHT31;63191;39.566;2.654;2022-12-05T19:24:04;15.10;80.01
74661;SHT31;63191;39.566;2.654;2022-12-05T19:26:32;15.08;80.11
74661;SHT31;63191;39.566;2.654;2022-12-05T19:28:59;15.06;80.20